sensor_id;sensor_type;location;lat;lon;timestamp;temperature;humidity
4050;DHT22;2039;50.894;6.888;2024-03-02T00:02:24;7.90;69.40
4050;DHT22;2039;50.894;6.888;2024-03-02T00:04:51;7.90;69.30
4050;DHT22;2039;50.894;6.888;2024-03-02T00:07:19;7.90;69.10
4050;DHT22;2039;50.894;6.888;2024-03-02T00:09:45;7.90;69.90
4050;DHT22;2039;50.894;6.888;2024-03-02T00:12:14;8.00;68.50
4050;DHT22;2039;50.894;6.888;2024-03-02T00:14:41;8.00;66.10
4050;DHT22;2039;50.894;6.888;2024-03-02T00:17:21;8.00;69.20
4050;DHT22;2039;50.894;6.888;2024-03-02T00:19:50;8.00;69.70
4050;DHT22;2039;50.894;6.888;2024-03-02T00:22:16;8.00;67.70
4050;DHT22;2039;50.894;6.888;2024-03-02T00:24:41;7.90;71.60
4050;DHT22;2039;50.894;6.888;2024-03-02T00:27:07;8.00;68.00
4050;DHT22;2039;50.894;6.888;2024-03-02T00:29:36;8.00;68.40
4050;DHT22;2039;50.894;6.888;2024-03-02T00:32:02;8.00;70.90
4050;DHT22;2039;50.894;6.888;2024-03-02T00:34:31;8.00;68.40
4050;DHT22;2039;50.894;6.888;2024-03-02T00:36:59;8.00;66.40
4050;DHT22;2039;50.894;6.888;2024-03-02T00:39:25;8.00;66.50
4050;DHT22;2039;50.894;6.888;2024-03-02T00:41:51;8.00;65.70
4050;DHT22;2039;50.894;6.888;2024-03-02T00:44:20;8.10;63.30
4050;DHT22;2039;50.894;6.888;2024-03-02T00:46:49;8.20;59.00
4050;DHT22;2039;50.894;6.888;2024-03-02T00:49:21;8.20;59.60
4050;DHT22;2039;50.894;6.888;2024-03-02T00:51:49;8.10;60.50
4050;DHT22;2039;50.894;6.888;2024-03-02T00:54:15;8.20;61.90
4050;DHT22;2039;50.894;6.888;2024-03-02T00:56:44;8.20;60.20
4050;DHT22;2039;50.894;6.888;2024-03-02T00:59:13;8.20;58.30
4050;DHT22;2039;50.894;6.888;2024-03-02T01:01:39;8.20;56.00
4050;DHT22;2039;50.894;6.888;2024-03-02T01:04:04;8.20;55.90
4050;DHT22;2039;50.894;6.888;2024-03-02T01:06:30;8.20;57.50
4050;DHT22;2039;50.894;6.888;2024-03-02T01:08:56;8.20;58.30
4050;DHT22;2039;50.894;6.888;2024-03-02T01:11:22;8.10;59.90
4050;DHT22;2039;50.894;6.888;2024-03-02T01:13:48;8.00;63.10
4050;DHT22;2039;50.894;6.888;2024-03-02T01:16:14;8.00;63.90
4050;DHT22;2039;50.894;6.888;2024-03-02T01:18:41;8.00;65.80
4050;DHT22;2039;50.894;6.888;2024-03-02T01:21:07;8.00;62.60
4050;DHT22;2039;50.894;6.888;2024-03-02T01:23:36;8.00;67.20
4050;DHT22;2039;50.894;6.888;2024-03-02T01:26:01;7.90;71.70
4050;DHT22;2039;50.894;6.888;2024-03-02T01:28:27;7.80;71.70
4050;DHT22;2039;50.894;6.888;2024-03-02T01:30:53;7.80;78.30
4050;DHT22;2039;50.894;6.888;2024-03-02T01:33:19;7.80;78.90
4050;DHT22;2039;50.894;6.888;2024-03-02T01:35:45;7.90;80.80
4050;DHT22;2039;50.894;6.888;2024-03-02T01:38:11;7.90;78.30
4050;DHT22;2039;50.894;6.888;2024-03-02T01:40:37;7.90;77.50
4050;DHT22;2039;50.894;6.888;2024-03-02T01:43:06;7.90;77.60
4050;DHT22;2039;50.894;6.888;2024-03-02T01:45:33;7.90;77.50
4050;DHT22;2039;50.894;6.888;2024-03-02T01:47:59;7.90;77.90
4050;DHT22;2039;50.894;6.888;2024-03-02T01:50:29;7.90;79.20
4050;DHT22;2039;50.894;6.888;2024-03-02T01:52:56;7.90;75.90
4050;DHT22;2039;50.894;6.888;2024-03-02T01:55:22;8.00;74.60
4050;DHT22;2039;50.894;6.888;2024-03-02T01:57:49;7.90;74.70
4050;DHT22;2039;50.894;6.888;2024-03-02T02:00:16;8.00;74.30
4050;DHT22;2039;50.894;6.888;2024-03-02T02:02:42;8.00;71.90
4050;DHT22;2039;50.894;6.888;2024-03-02T02:05:08;8.00;72.20
4050;DHT22;2039;50.894;6.888;2024-03-02T02:07:35;8.00;72.20
4050;DHT22;2039;50.894;6.888;2024-03-02T02:10:01;8.00;70.40
4050;DHT22;2039;50.894;6.888;2024-03-02T02:12:26;8.00;71.40
4050;DHT22;2039;50.894;6.888;2024-03-02T02:14:52;8.00;67.80
4050;DHT22;2039;50.894;6.888;2024-03-02T02:17:18;7.90;67.90
4050;DHT22;2039;50.894;6.888;2024-03-02T02:19:44;7.90;71.40
4050;DHT22;2039;50.894;6.888;2024-03-02T02:22:10;7.90;69.40
4050;DHT22;2039;50.894;6.888;2024-03-02T02:24:36;7.90;69.50
4050;DHT22;2039;50.894;6.888;2024-03-02T02:27:05;7.90;69.00
4050;DHT22;2039;50.894;6.888;2024-03-02T02:29:30;7.90;67.60
4050;DHT22;2039;50.894;6.888;2024-03-02T02:31:56;8.00;66.80
4050;DHT22;2039;50.894;6.888;2024-03-02T02:34:21;8.00;66.70
4050;DHT22;2039;50.894;6.888;2024-03-02T02:36:47;8.00;62.00
4050;DHT22;2039;50.894;6.888;2024-03-02T02:39:18;8.00;62.80
4050;DHT22;2039;50.894;6.888;2024-03-02T02:41:45;8.00;64.10
4050;DHT22;2039;50.894;6.888;2024-03-02T02:44:11;8.00;63.50
4050;DHT22;2039;50.894;6.888;2024-03-02T02:46:40;8.00;63.80
4050;DHT22;2039;50.894;6.888;2024-03-02T02:49:06;8.00;60.00
4050;DHT22;2039;50.894;6.888;2024-03-02T02:51:32;8.00;60.10
4050;DHT22;2039;50.894;6.888;2024-03-02T02:53:57;8.00;58.10
4050;DHT22;2039;50.894;6.888;2024-03-02T02:56:23;8.00;60.90
4050;DHT22;2039;50.894;6.888;2024-03-02T02:58:49;8.00;61.00
4050;DHT22;2039;50.894;6.888;2024-03-02T03:01:15;8.00;58.90
4050;DHT22;2039;50.894;6.888;2024-03-02T03:03:44;8.00;62.40
4050;DHT22;2039;50.894;6.888;2024-03-02T03:06:11;8.00;58.90
4050;DHT22;2039;50.894;6.888;2024-03-02T03:08:40;8.00;60.70
4050;DHT22;2039;50.894;6.888;2024-03-02T03:11:05;8.10;58.00
4050;DHT22;2039;50.894;6.888;2024-03-02T03:13:32;8.00;55.10
4050;DHT22;2039;50.894;6.888;2024-03-02T03:15:58;8.00;58.20
4050;DHT22;2039;50.894;6.888;2024-03-02T03:18:23;8.00;59.00
4050;DHT22;2039;50.894;6.888;2024-03-02T03:20:49;8.00;59.70
4050;DHT22;2039;50.894;6.888;2024-03-02T03:23:15;8.00;60.00
4050;DHT22;2039;50.894;6.888;2024-03-02T03:25:42;8.00;57.70
4050;DHT22;2039;50.894;6.888;2024-03-02T03:28:08;8.00;58.10
4050;DHT22;2039;50.894;6.888;2024-03-02T03:30:38;8.00;59.20
4050;DHT22;2039;50.894;6.888;2024-03-02T03:33:04;8.00;59.60
4050;DHT22;2039;50.894;6.888;2024-03-02T03:35:33;8.00;60.30
4050;DHT22;2039;50.894;6.888;2024-03-02T03:37:59;8.00;60.60
4050;DHT22;2039;50.894;6.888;2024-03-02T03:40:24;8.00;56.10
4050;DHT22;2039;50.894;6.888;2024-03-02T03:42:50;7.90;61.10
4050;DHT22;2039;50.894;6.888;2024-03-02T03:45:16;7.90;65.00
4050;DHT22;2039;50.894;6.888;2024-03-02T03:47:42;7.90;62.90
4050;DHT22;2039;50.894;6.888;2024-03-02T03:50:08;7.90;64.50
4050;DHT22;2039;50.894;6.888;2024-03-02T03:52:33;8.00;65.40
4050;DHT22;2039;50.894;6.888;2024-03-02T03:55:00;8.00;59.50
4050;DHT22;2039;50.894;6.888;2024-03-02T03:57:26;7.90;62.50
4050;DHT22;2039;50.894;6.888;2024-03-02T03:59:52;7.90;66.60
4050;DHT22;2039;50.894;6.888;2024-03-02T04:02:18;7.90;64.80
4050;DHT22;2039;50.894;6.888;2024-03-02T04:04:44;7.80;65.80
4050;DHT22;2039;50.894;6.888;2024-03-02T04:07:10;7.70;70.90
4050;DHT22;2039;50.894;6.888;2024-03-02T04:09:35;7.70;74.50
4050;DHT22;2039;50.894;6.888;2024-03-02T04:12:01;7.70;75.80
4050;DHT22;2039;50.894;6.888;2024-03-02T04:14:27;7.70;75.00
4050;DHT22;2039;50.894;6.888;2024-03-02T04:16:52;7.70;78.00
4050;DHT22;2039;50.894;6.888;2024-03-02T04:19:18;7.70;74.20
4050;DHT22;2039;50.894;6.888;2024-03-02T04:21:44;7.60;80.40
4050;DHT22;2039;50.894;6.888;2024-03-02T04:24:10;7.50;83.30
4050;DHT22;2039;50.894;6.888;2024-03-02T04:26:36;7.50;86.20
4050;DHT22;2039;50.894;6.888;2024-03-02T04:29:02;7.50;89.00
4050;DHT22;2039;50.894;6.888;2024-03-02T04:31:27;7.40;89.00
4050;DHT22;2039;50.894;6.888;2024-03-02T04:33:53;7.50;88.80
4050;DHT22;2039;50.894;6.888;2024-03-02T04:36:19;7.50;88.20
4050;DHT22;2039;50.894;6.888;2024-03-02T04:38:45;7.50;84.50
4050;DHT22;2039;50.894;6.888;2024-03-02T04:41:10;7.50;84.80
4050;DHT22;2039;50.894;6.888;2024-03-02T04:43:36;7.40;86.60
4050;DHT22;2039;50.894;6.888;2024-03-02T04:46:02;7.40;88.40
4050;DHT22;2039;50.894;6.888;2024-03-02T04:48:28;7.40;90.10
4050;DHT22;2039;50.894;6.888;2024-03-02T04:50:53;7.30;90.10
4050;DHT22;2039;50.894;6.888;2024-03-02T04:53:19;7.30;91.70
4050;DHT22;2039;50.894;6.888;2024-03-02T04:55:45;7.20;92.70
4050;DHT22;2039;50.894;6.888;2024-03-02T04:58:23;7.10;94.40
4050;DHT22;2039;50.894;6.888;2024-03-02T05:00:49;7.10;95.20
4050;DHT22;2039;50.894;6.888;2024-03-02T05:03:14;7.00;96.10
4050;DHT22;2039;50.894;6.888;2024-03-02T05:05:40;7.00;96.50
4050;DHT22;2039;50.894;6.888;2024-03-02T05:08:06;7.00;97.90
4050;DHT22;2039;50.894;6.888;2024-03-02T05:10:32;6.90;98.80
4050;DHT22;2039;50.894;6.888;2024-03-02T05:12:57;6.90;99.40
4050;DHT22;2039;50.894;6.888;2024-03-02T05:15:24;6.90;99.80
4050;DHT22;2039;50.894;6.888;2024-03-02T05:17:50;6.80;99.90
4050;DHT22;2039;50.894;6.888;2024-03-02T05:20:16;6.80;99.90
4050;DHT22;2039;50.894;6.888;2024-03-02T05:22:42;6.80;99.90
4050;DHT22;2039;50.894;6.888;2024-03-02T05:25:09;6.80;99.90
4050;DHT22;2039;50.894;6.888;2024-03-02T05:27:37;6.80;99.90
4050;DHT22;2039;50.894;6.888;2024-03-02T05:30:03;6.70;99.90
4050;DHT22;2039;50.894;6.888;2024-03-02T05:32:34;6.80;99.90
4050;DHT22;2039;50.894;6.888;2024-03-02T05:35:00;6.80;99.90
4050;DHT22;2039;50.894;6.888;2024-03-02T05:37:25;6.90;99.80
4050;DHT22;2039;50.894;6.888;2024-03-02T05:39:51;6.90;98.20
4050;DHT22;2039;50.894;6.888;2024-03-02T05:42:17;6.90;96.80
4050;DHT22;2039;50.894;6.888;2024-03-02T05:44:43;6.80;97.10
4050;DHT22;2039;50.894;6.888;2024-03-02T05:47:08;6.90;97.30
4050;DHT22;2039;50.894;6.888;2024-03-02T05:49:35;6.80;98.00
4050;DHT22;2039;50.894;6.888;2024-03-02T05:52:00;6.80;97.40
4050;DHT22;2039;50.894;6.888;2024-03-02T05:54:26;6.90;98.80
4050;DHT22;2039;50.894;6.888;2024-03-02T05:56:51;6.80;97.50
4050;DHT22;2039;50.894;6.888;2024-03-02T05:59:17;6.80;98.40
4050;DHT22;2039;50.894;6.888;2024-03-02T06:01:44;6.80;98.50
4050;DHT22;2039;50.894;6.888;2024-03-02T06:04:10;6.80;97.50
4050;DHT22;2039;50.894;6.888;2024-03-02T06:06:39;6.90;97.70
4050;DHT22;2039;50.894;6.888;2024-03-02T06:09:06;7.00;96.30
4050;DHT22;2039;50.894;6.888;2024-03-02T06:11:38;6.90;96.50
4050;DHT22;2039;50.894;6.888;2024-03-02T06:14:05;6.90;96.40
4050;DHT22;2039;50.894;6.888;2024-03-02T06:16:31;6.90;96.60
4050;DHT22;2039;50.894;6.888;2024-03-02T06:18:57;6.90;95.60
4050;DHT22;2039;50.894;6.888;2024-03-02T06:21:28;6.90;95.20
4050;DHT22;2039;50.894;6.888;2024-03-02T06:23:54;7.00;96.50
4050;DHT22;2039;50.894;6.888;2024-03-02T06:26:20;7.00;96.50
4050;DHT22;2039;50.894;6.888;2024-03-02T06:28:46;6.90;95.50
4050;DHT22;2039;50.894;6.888;2024-03-02T06:31:12;7.00;95.30
4050;DHT22;2039;50.894;6.888;2024-03-02T06:33:37;7.00;93.80
4050;DHT22;2039;50.894;6.888;2024-03-02T06:36:04;7.00;94.50
4050;DHT22;2039;50.894;6.888;2024-03-02T06:38:29;7.10;93.00
4050;DHT22;2039;50.894;6.888;2024-03-02T06:40:57;7.10;92.30
4050;DHT22;2039;50.894;6.888;2024-03-02T06:43:23;7.20;91.20
4050;DHT22;2039;50.894;6.888;2024-03-02T06:45:50;7.20;91.40
4050;DHT22;2039;50.894;6.888;2024-03-02T06:48:16;7.20;90.40
4050;DHT22;2039;50.894;6.888;2024-03-02T06:50:46;7.10;90.90
4050;DHT22;2039;50.894;6.888;2024-03-02T06:53:12;7.20;91.00
4050;DHT22;2039;50.894;6.888;2024-03-02T06:55:38;7.20;91.30
4050;DHT22;2039;50.894;6.888;2024-03-02T06:58:03;7.10;92.90
4050;DHT22;2039;50.894;6.888;2024-03-02T07:00:30;7.10;92.20
4050;DHT22;2039;50.894;6.888;2024-03-02T07:02:56;7.10;93.70
4050;DHT22;2039;50.894;6.888;2024-03-02T07:05:21;7.20;92.50
4050;DHT22;2039;50.894;6.888;2024-03-02T07:07:47;7.20;93.60
4050;DHT22;2039;50.894;6.888;2024-03-02T07:10:12;7.20;92.30
4050;DHT22;2039;50.894;6.888;2024-03-02T07:12:38;7.30;93.00
4050;DHT22;2039;50.894;6.888;2024-03-02T07:15:04;7.30;92.10
4050;DHT22;2039;50.894;6.888;2024-03-02T07:17:32;7.40;91.70
4050;DHT22;2039;50.894;6.888;2024-03-02T07:19:58;7.50;90.60
4050;DHT22;2039;50.894;6.888;2024-03-02T07:22:24;7.60;88.50
4050;DHT22;2039;50.894;6.888;2024-03-02T07:24:51;7.70;82.30
4050;DHT22;2039;50.894;6.888;2024-03-02T07:27:17;7.80;82.00
4050;DHT22;2039;50.894;6.888;2024-03-02T07:29:43;7.80;77.30
4050;DHT22;2039;50.894;6.888;2024-03-02T07:32:10;7.90;74.60
4050;DHT22;2039;50.894;6.888;2024-03-02T07:34:36;7.90;77.10
4050;DHT22;2039;50.894;6.888;2024-03-02T07:37:03;8.00;74.80
4050;DHT22;2039;50.894;6.888;2024-03-02T07:39:29;8.00;69.80
4050;DHT22;2039;50.894;6.888;2024-03-02T07:41:55;8.00;71.30
4050;DHT22;2039;50.894;6.888;2024-03-02T07:44:21;8.00;68.70
4050;DHT22;2039;50.894;6.888;2024-03-02T07:46:47;8.10;65.50
4050;DHT22;2039;50.894;6.888;2024-03-02T07:49:13;8.10;66.80
4050;DHT22;2039;50.894;6.888;2024-03-02T07:51:42;8.20;66.90
4050;DHT22;2039;50.894;6.888;2024-03-02T07:54:08;8.20;66.30
4050;DHT22;2039;50.894;6.888;2024-03-02T07:56:34;8.30;60.00
4050;DHT22;2039;50.894;6.888;2024-03-02T07:59:01;8.30;56.10
4050;DHT22;2039;50.894;6.888;2024-03-02T08:01:28;8.30;57.90
4050;DHT22;2039;50.894;6.888;2024-03-02T08:03:59;8.30;58.20
4050;DHT22;2039;50.894;6.888;2024-03-02T08:06:28;8.40;52.90
4050;DHT22;2039;50.894;6.888;2024-03-02T08:08:54;8.50;55.20
4050;DHT22;2039;50.894;6.888;2024-03-02T08:11:21;8.50;50.90
4050;DHT22;2039;50.894;6.888;2024-03-02T08:13:47;8.60;49.80
4050;DHT22;2039;50.894;6.888;2024-03-02T08:16:13;8.60;48.00
4050;DHT22;2039;50.894;6.888;2024-03-02T08:18:39;8.60;50.50
4050;DHT22;2039;50.894;6.888;2024-03-02T08:21:05;8.60;50.70
4050;DHT22;2039;50.894;6.888;2024-03-02T08:23:33;8.70;53.80
4050;DHT22;2039;50.894;6.888;2024-03-02T08:25:59;8.80;48.10
4050;DHT22;2039;50.894;6.888;2024-03-02T08:28:25;8.90;48.50
4050;DHT22;2039;50.894;6.888;2024-03-02T08:30:51;9.00;46.00
4050;DHT22;2039;50.894;6.888;2024-03-02T08:33:16;9.10;48.50
4050;DHT22;2039;50.894;6.888;2024-03-02T08:35:42;9.20;43.00
4050;DHT22;2039;50.894;6.888;2024-03-02T08:38:08;9.30;38.30
4050;DHT22;2039;50.894;6.888;2024-03-02T08:40:34;9.30;35.50
4050;DHT22;2039;50.894;6.888;2024-03-02T08:42:59;9.40;35.10
4050;DHT22;2039;50.894;6.888;2024-03-02T08:45:25;9.40;30.90
4050;DHT22;2039;50.894;6.888;2024-03-02T08:47:51;9.40;30.30
4050;DHT22;2039;50.894;6.888;2024-03-02T08:50:17;9.40;26.50
4050;DHT22;2039;50.894;6.888;2024-03-02T08:52:42;9.40;29.90
4050;DHT22;2039;50.894;6.888;2024-03-02T08:55:08;9.50;27.20
4050;DHT22;2039;50.894;6.888;2024-03-02T08:57:35;9.50;21.30
4050;DHT22;2039;50.894;6.888;2024-03-02T09:00:00;9.60;21.50
4050;DHT22;2039;50.894;6.888;2024-03-02T09:02:26;9.60;22.00
4050;DHT22;2039;50.894;6.888;2024-03-02T09:04:52;9.70;20.00
4050;DHT22;2039;50.894;6.888;2024-03-02T09:07:18;9.70;14.00
4050;DHT22;2039;50.894;6.888;2024-03-02T09:09:44;9.80;16.40
4050;DHT22;2039;50.894;6.888;2024-03-02T09:12:09;9.80;17.00
4050;DHT22;2039;50.894;6.888;2024-03-02T09:14:36;9.90;20.00
4050;DHT22;2039;50.894;6.888;2024-03-02T09:17:02;9.90;16.80
4050;DHT22;2039;50.894;6.888;2024-03-02T09:19:29;10.00;13.10
4050;DHT22;2039;50.894;6.888;2024-03-02T09:21:55;10.10;11.50
4050;DHT22;2039;50.894;6.888;2024-03-02T09:24:21;10.10;10.30
4050;DHT22;2039;50.894;6.888;2024-03-02T09:26:47;10.20;7.70
4050;DHT22;2039;50.894;6.888;2024-03-02T09:29:13;10.30;5.30
4050;DHT22;2039;50.894;6.888;2024-03-02T09:31:40;10.40;4.90
4050;DHT22;2039;50.894;6.888;2024-03-02T09:34:07;10.40;1.00
4050;DHT22;2039;50.894;6.888;2024-03-02T09:36:32;10.50;1.00
4050;DHT22;2039;50.894;6.888;2024-03-02T09:38:58;10.60;1.00
4050;DHT22;2039;50.894;6.888;2024-03-02T09:41:24;10.60;1.00
4050;DHT22;2039;50.894;6.888;2024-03-02T09:43:50;10.60;1.00
4050;DHT22;2039;50.894;6.888;2024-03-02T09:46:16;10.70;1.00
4050;DHT22;2039;50.894;6.888;2024-03-02T09:48:44;10.80;1.00
4050;DHT22;2039;50.894;6.888;2024-03-02T09:51:10;10.80;1.00
4050;DHT22;2039;50.894;6.888;2024-03-02T09:53:37;10.80;1.00
4050;DHT22;2039;50.894;6.888;2024-03-02T09:56:03;10.90;1.00
4050;DHT22;2039;50.894;6.888;2024-03-02T09:58:33;10.90;1.00
4050;DHT22;2039;50.894;6.888;2024-03-02T10:00:58;11.00;1.00
4050;DHT22;2039;50.894;6.888;2024-03-02T10:03:24;11.10;1.00
4050;DHT22;2039;50.894;6.888;2024-03-02T10:05:50;11.20;1.00
4050;DHT22;2039;50.894;6.888;2024-03-02T10:08:17;11.30;1.00
4050;DHT22;2039;50.894;6.888;2024-03-02T10:10:44;11.40;1.00
4050;DHT22;2039;50.894;6.888;2024-03-02T10:13:11;11.60;1.00
4050;DHT22;2039;50.894;6.888;2024-03-02T10:15:37;11.70;1.00
4050;DHT22;2039;50.894;6.888;2024-03-02T10:18:09;11.70;1.00
4050;DHT22;2039;50.894;6.888;2024-03-02T10:20:36;11.80;1.00
4050;DHT22;2039;50.894;6.888;2024-03-02T10:23:15;11.90;1.00
4050;DHT22;2039;50.894;6.888;2024-03-02T10:25:42;11.90;1.00
4050;DHT22;2039;50.894;6.888;2024-03-02T10:28:08;11.90;1.00
4050;DHT22;2039;50.894;6.888;2024-03-02T10:30:35;11.90;1.00
4050;DHT22;2039;50.894;6.888;2024-03-02T10:33:02;12.00;1.00
4050;DHT22;2039;50.894;6.888;2024-03-02T10:35:28;12.10;1.00
4050;DHT22;2039;50.894;6.888;2024-03-02T10:37:58;12.20;1.00
4050;DHT22;2039;50.894;6.888;2024-03-02T10:40:24;12.20;1.00
4050;DHT22;2039;50.894;6.888;2024-03-02T10:42:50;12.30;1.00
4050;DHT22;2039;50.894;6.888;2024-03-02T10:45:20;12.40;1.00
4050;DHT22;2039;50.894;6.888;2024-03-02T10:47:49;12.40;1.00
4050;DHT22;2039;50.894;6.888;2024-03-02T10:50:15;12.50;1.00
4050;DHT22;2039;50.894;6.888;2024-03-02T10:52:41;12.60;1.00
4050;DHT22;2039;50.894;6.888;2024-03-02T10:55:09;12.70;1.00
4050;DHT22;2039;50.894;6.888;2024-03-02T10:57:54;12.50;1.00
4050;DHT22;2039;50.894;6.888;2024-03-02T11:00:24;12.60;1.00
4050;DHT22;2039;50.894;6.888;2024-03-02T11:02:57;12.70;1.00
4050;DHT22;2039;50.894;6.888;2024-03-02T11:05:28;12.90;1.00
4050;DHT22;2039;50.894;6.888;2024-03-02T11:08:01;13.00;1.00
4050;DHT22;2039;50.894;6.888;2024-03-02T11:10:37;13.10;1.00
4050;DHT22;2039;50.894;6.888;2024-03-02T11:13:05;13.00;1.00
4050;DHT22;2039;50.894;6.888;2024-03-02T11:15:35;13.20;1.00
4050;DHT22;2039;50.894;6.888;2024-03-02T11:18:05;13.00;1.00
4050;DHT22;2039;50.894;6.888;2024-03-02T11:20:39;13.10;1.00
4050;DHT22;2039;50.894;6.888;2024-03-02T11:23:06;13.20;1.00
4050;DHT22;2039;50.894;6.888;2024-03-02T11:25:35;13.20;1.00
4050;DHT22;2039;50.894;6.888;2024-03-02T11:28:06;13.20;1.00
4050;DHT22;2039;50.894;6.888;2024-03-02T11:33:03;13.50;1.00
4050;DHT22;2039;50.894;6.888;2024-03-02T11:35:45;13.50;1.00
4050;DHT22;2039;50.894;6.888;2024-03-02T11:38:18;13.60;1.00
4050;DHT22;2039;50.894;6.888;2024-03-02T11:40:44;13.50;1.00
4050;DHT22;2039;50.894;6.888;2024-03-02T11:43:11;13.50;1.00
4050;DHT22;2039;50.894;6.888;2024-03-02T11:45:37;13.30;1.00
4050;DHT22;2039;50.894;6.888;2024-03-02T11:48:08;13.40;1.00
4050;DHT22;2039;50.894;6.888;2024-03-02T11:53:08;13.70;1.00
4050;DHT22;2039;50.894;6.888;2024-03-02T11:55:36;13.80;1.00
4050;DHT22;2039;50.894;6.888;2024-03-02T11:58:03;14.00;1.00
4050;DHT22;2039;50.894;6.888;2024-03-02T12:00:29;14.00;1.00
4050;DHT22;2039;50.894;6.888;2024-03-02T12:03:03;13.80;1.00
4050;DHT22;2039;50.894;6.888;2024-03-02T12:05:30;13.80;1.00
4050;DHT22;2039;50.894;6.888;2024-03-02T12:07:57;13.60;1.00
4050;DHT22;2039;50.894;6.888;2024-03-02T12:10:23;13.40;1.00
4050;DHT22;2039;50.894;6.888;2024-03-02T12:12:56;13.40;1.00
4050;DHT22;2039;50.894;6.888;2024-03-02T12:15:29;13.40;1.00
4050;DHT22;2039;50.894;6.888;2024-03-02T12:18:00;13.40;1.00
4050;DHT22;2039;50.894;6.888;2024-03-02T12:20:28;13.50;1.00
4050;DHT22;2039;50.894;6.888;2024-03-02T12:22:57;13.70;1.00
4050;DHT22;2039;50.894;6.888;2024-03-02T12:25:24;13.90;1.00
4050;DHT22;2039;50.894;6.888;2024-03-02T12:27:53;14.20;1.00
4050;DHT22;2039;50.894;6.888;2024-03-02T12:30:19;14.20;1.00
4050;DHT22;2039;50.894;6.888;2024-03-02T12:32:45;14.30;1.00
4050;DHT22;2039;50.894;6.888;2024-03-02T12:35:12;14.10;1.00
4050;DHT22;2039;50.894;6.888;2024-03-02T12:37:51;14.10;1.00
4050;DHT22;2039;50.894;6.888;2024-03-02T12:40:18;14.10;1.00
4050;DHT22;2039;50.894;6.888;2024-03-02T12:42:47;14.10;1.00
4050;DHT22;2039;50.894;6.888;2024-03-02T12:45:14;14.20;1.00
4050;DHT22;2039;50.894;6.888;2024-03-02T12:47:41;14.40;1.00
4050;DHT22;2039;50.894;6.888;2024-03-02T12:50:08;14.50;1.00
4050;DHT22;2039;50.894;6.888;2024-03-02T12:52:34;14.60;1.00
4050;DHT22;2039;50.894;6.888;2024-03-02T12:55:04;14.40;1.00
4050;DHT22;2039;50.894;6.888;2024-03-02T12:57:31;14.60;1.00
4050;DHT22;2039;50.894;6.888;2024-03-02T12:59:59;14.70;1.00
4050;DHT22;2039;50.894;6.888;2024-03-02T13:02:28;14.50;1.00
4050;DHT22;2039;50.894;6.888;2024-03-02T13:04:55;14.40;1.00
4050;DHT22;2039;50.894;6.888;2024-03-02T13:07:21;14.20;1.00
4050;DHT22;2039;50.894;6.888;2024-03-02T13:09:49;14.10;1.00
4050;DHT22;2039;50.894;6.888;2024-03-02T13:12:16;14.10;1.00
4050;DHT22;2039;50.894;6.888;2024-03-02T13:14:42;14.10;1.00
4050;DHT22;2039;50.894;6.888;2024-03-02T13:17:09;14.10;1.00
4050;DHT22;2039;50.894;6.888;2024-03-02T13:19:35;14.20;1.00
4050;DHT22;2039;50.894;6.888;2024-03-02T13:22:00;14.20;1.00
4050;DHT22;2039;50.894;6.888;2024-03-02T13:24:29;14.30;1.00
4050;DHT22;2039;50.894;6.888;2024-03-02T13:26:55;14.40;1.00
4050;DHT22;2039;50.894;6.888;2024-03-02T13:29:23;14.20;1.00
4050;DHT22;2039;50.894;6.888;2024-03-02T13:31:49;14.10;1.00
4050;DHT22;2039;50.894;6.888;2024-03-02T13:34:15;14.30;1.00
4050;DHT22;2039;50.894;6.888;2024-03-02T13:36:41;14.40;1.00
4050;DHT22;2039;50.894;6.888;2024-03-02T13:39:07;14.50;1.00
4050;DHT22;2039;50.894;6.888;2024-03-02T13:41:35;14.50;1.00
4050;DHT22;2039;50.894;6.888;2024-03-02T13:44:01;14.50;1.00
4050;DHT22;2039;50.894;6.888;2024-03-02T13:46:27;14.30;1.00
4050;DHT22;2039;50.894;6.888;2024-03-02T13:48:54;14.30;1.00
4050;DHT22;2039;50.894;6.888;2024-03-02T13:51:20;14.30;1.00
4050;DHT22;2039;50.894;6.888;2024-03-02T13:53:46;14.40;1.00
4050;DHT22;2039;50.894;6.888;2024-03-02T13:56:12;14.30;1.00
4050;DHT22;2039;50.894;6.888;2024-03-02T13:58:37;14.40;1.00
4050;DHT22;2039;50.894;6.888;2024-03-02T14:01:04;14.50;1.00
4050;DHT22;2039;50.894;6.888;2024-03-02T14:03:30;14.60;1.00
4050;DHT22;2039;50.894;6.888;2024-03-02T14:05:59;14.80;1.00
4050;DHT22;2039;50.894;6.888;2024-03-02T14:08:25;14.60;1.00
4050;DHT22;2039;50.894;6.888;2024-03-02T14:10:50;14.50;1.00
4050;DHT22;2039;50.894;6.888;2024-03-02T14:13:16;14.40;1.00
4050;DHT22;2039;50.894;6.888;2024-03-02T14:15:42;14.60;1.00
4050;DHT22;2039;50.894;6.888;2024-03-02T14:18:08;14.60;1.00
4050;DHT22;2039;50.894;6.888;2024-03-02T14:20:36;14.50;1.00
4050;DHT22;2039;50.894;6.888;2024-03-02T14:23:01;14.30;1.00
4050;DHT22;2039;50.894;6.888;2024-03-02T14:25:29;14.30;1.00
4050;DHT22;2039;50.894;6.888;2024-03-02T14:27:57;14.30;1.00
4050;DHT22;2039;50.894;6.888;2024-03-02T14:30:23;14.30;1.00
4050;DHT22;2039;50.894;6.888;2024-03-02T14:32:49;14.40;1.00
4050;DHT22;2039;50.894;6.888;2024-03-02T14:35:15;14.30;1.00
4050;DHT22;2039;50.894;6.888;2024-03-02T14:37:40;14.30;1.00
4050;DHT22;2039;50.894;6.888;2024-03-02T14:40:07;14.10;1.00
4050;DHT22;2039;50.894;6.888;2024-03-02T14:42:35;14.00;1.00
4050;DHT22;2039;50.894;6.888;2024-03-02T14:45:01;14.00;1.00
4050;DHT22;2039;50.894;6.888;2024-03-02T14:47:32;14.00;1.00
4050;DHT22;2039;50.894;6.888;2024-03-02T14:50:02;14.10;1.00
4050;DHT22;2039;50.894;6.888;2024-03-02T14:52:32;14.10;1.00
4050;DHT22;2039;50.894;6.888;2024-03-02T14:54:58;14.10;1.00
4050;DHT22;2039;50.894;6.888;2024-03-02T14:57:24;14.00;1.00
4050;DHT22;2039;50.894;6.888;2024-03-02T14:59:49;14.00;1.00
4050;DHT22;2039;50.894;6.888;2024-03-02T15:02:15;14.10;1.00
4050;DHT22;2039;50.894;6.888;2024-03-02T15:04:40;14.00;1.00
4050;DHT22;2039;50.894;6.888;2024-03-02T15:07:06;14.10;1.00
4050;DHT22;2039;50.894;6.888;2024-03-02T15:09:32;14.20;1.00
4050;DHT22;2039;50.894;6.888;2024-03-02T15:12:00;14.20;1.00
4050;DHT22;2039;50.894;6.888;2024-03-02T15:14:26;14.10;1.00
4050;DHT22;2039;50.894;6.888;2024-03-02T15:16:52;14.10;1.00
4050;DHT22;2039;50.894;6.888;2024-03-02T15:19:17;14.20;1.00
4050;DHT22;2039;50.894;6.888;2024-03-02T15:21:43;14.20;1.00
4050;DHT22;2039;50.894;6.888;2024-03-02T15:24:09;14.10;1.00
4050;DHT22;2039;50.894;6.888;2024-03-02T15:26:34;14.10;1.00
4050;DHT22;2039;50.894;6.888;2024-03-02T15:29:00;14.10;1.00
4050;DHT22;2039;50.894;6.888;2024-03-02T15:31:25;14.10;1.00
4050;DHT22;2039;50.894;6.888;2024-03-02T15:33:51;14.00;1.00
4050;DHT22;2039;50.894;6.888;2024-03-02T15:36:19;13.90;1.00
4050;DHT22;2039;50.894;6.888;2024-03-02T15:38:44;13.90;1.00
4050;DHT22;2039;50.894;6.888;2024-03-02T15:41:10;13.90;1.00
4050;DHT22;2039;50.894;6.888;2024-03-02T15:43:36;13.90;1.00
4050;DHT22;2039;50.894;6.888;2024-03-02T15:46:04;13.90;1.00
4050;DHT22;2039;50.894;6.888;2024-03-02T15:48:30;14.00;1.00
4050;DHT22;2039;50.894;6.888;2024-03-02T15:50:55;14.00;1.00
4050;DHT22;2039;50.894;6.888;2024-03-02T15:53:25;14.00;1.00
4050;DHT22;2039;50.894;6.888;2024-03-02T15:55:51;14.00;1.00
4050;DHT22;2039;50.894;6.888;2024-03-02T15:58:17;14.00;1.00
4050;DHT22;2039;50.894;6.888;2024-03-02T16:00:43;14.00;1.00
4050;DHT22;2039;50.894;6.888;2024-03-02T16:03:09;14.00;1.00
4050;DHT22;2039;50.894;6.888;2024-03-02T16:05:34;14.00;1.00
4050;DHT22;2039;50.894;6.888;2024-03-02T16:08:03;13.90;1.00
4050;DHT22;2039;50.894;6.888;2024-03-02T16:10:28;13.90;1.00
4050;DHT22;2039;50.894;6.888;2024-03-02T16:12:54;13.90;1.00
4050;DHT22;2039;50.894;6.888;2024-03-02T16:15:25;13.90;1.00
4050;DHT22;2039;50.894;6.888;2024-03-02T16:17:54;13.90;1.00
4050;DHT22;2039;50.894;6.888;2024-03-02T16:20:19;13.80;1.00